createdAt,value
2019-03-24T00:00:46.012Z,74.70
2019-03-24T00:01:28.703Z,74.70
2019-03-24T00:02:11.660Z,74.60
2019-03-24T00:02:50.546Z,74.70
2019-03-24T00:03:29.470Z,74.70
2019-03-24T00:04:08.468Z,74.60
2019-03-24T00:04:47.388Z,74.70
2019-03-24T00:05:26.319Z,74.60
2019-03-24T00:06:05.316Z,74.80
2019-03-24T00:06:44.263Z,74.80
2019-03-24T00:07:23.180Z,74.70
2019-03-24T00:08:02.158Z,74.70
2019-03-24T00:08:41.116Z,74.90
2019-03-24T00:09:20.024Z,74.70
2019-03-24T00:09:59.004Z,74.80
2019-03-24T00:10:38.031Z,74.90
2019-03-24T00:11:16.995Z,74.90
2019-03-24T00:11:55.956Z,74.80
2019-03-24T00:12:34.897Z,74.80
2019-03-24T00:13:13.905Z,74.90
2019-03-24T00:13:52.790Z,75.60
2019-03-24T00:14:31.679Z,74.90
2019-03-24T00:15:11.168Z,74.80
2019-03-24T00:15:50.128Z,74.90
2019-03-24T00:16:29.115Z,74.90
2019-03-24T00:17:08.020Z,74.90
2019-03-24T00:17:46.980Z,74.90
2019-03-24T00:18:25.993Z,74.90
2019-03-24T00:19:04.937Z,75.00
2019-03-24T00:19:43.916Z,74.90
2019-03-24T00:20:22.811Z,74.90
2019-03-24T00:21:01.732Z,75.00
2019-03-24T00:21:40.637Z,75.00
2019-03-24T00:22:19.599Z,75.00
2019-03-24T00:22:58.511Z,75.00
2019-03-24T00:23:37.465Z,75.00
2019-03-24T00:24:16.389Z,75.00
2019-03-24T00:24:55.276Z,75.00
2019-03-24T00:25:34.199Z,75.00
2019-03-24T00:26:13.148Z,75.00
2019-03-24T00:26:52.090Z,75.00
2019-03-24T00:27:31.092Z,75.00
2019-03-24T00:28:10.029Z,75.00
2019-03-24T00:28:49.015Z,75.00
2019-03-24T00:29:27.983Z,74.90
2019-03-24T00:30:07.047Z,75.00
2019-03-24T00:30:45.983Z,75.00
2019-03-24T00:31:25.001Z,75.00
2019-03-24T00:32:04.003Z,75.00
2019-03-24T00:32:42.907Z,75.00
2019-03-24T00:33:21.873Z,75.00
2019-03-24T00:34:00.824Z,75.00
2019-03-24T00:34:39.719Z,75.00
2019-03-24T00:35:18.611Z,75.00
2019-03-24T00:35:57.505Z,75.00
2019-03-24T00:36:36.441Z,75.10
2019-03-24T00:37:15.371Z,75.10
2019-03-24T00:37:54.284Z,75.00
2019-03-24T00:38:33.186Z,75.20
2019-03-24T00:39:12.331Z,75.10
2019-03-24T00:39:51.250Z,75.10
2019-03-24T00:40:30.346Z,75.10
2019-03-24T00:41:09.240Z,75.20
2019-03-24T00:41:48.344Z,75.20
2019-03-24T00:42:27.286Z,75.20
2019-03-24T00:43:06.248Z,75.10
2019-03-24T00:43:45.183Z,75.20
2019-03-24T00:44:24.123Z,75.20
2019-03-24T00:45:03.046Z,75.30
2019-03-24T00:45:41.975Z,75.10
2019-03-24T00:46:20.938Z,75.20
2019-03-24T00:46:59.906Z,75.20
2019-03-24T00:47:38.828Z,75.20
2019-03-24T00:48:17.773Z,76.00
2019-03-24T00:48:56.685Z,75.30
2019-03-24T00:49:35.643Z,75.30
2019-03-24T00:50:14.583Z,75.30
2019-03-24T00:50:53.531Z,75.30
2019-03-24T00:51:32.501Z,75.20
2019-03-24T00:52:11.435Z,75.30
2019-03-24T00:52:50.352Z,75.20
2019-03-24T00:53:29.308Z,75.30
2019-03-24T00:54:08.405Z,75.30
2019-03-24T00:54:47.361Z,75.30
2019-03-24T00:55:26.310Z,75.40
2019-03-24T00:56:05.320Z,75.30
2019-03-24T00:56:44.251Z,75.40
2019-03-24T00:57:23.211Z,75.30
2019-03-24T00:58:02.175Z,75.30
2019-03-24T00:58:41.095Z,75.30
2019-03-24T00:59:20.028Z,75.50
2019-03-24T00:59:58.927Z,75.50
2019-03-24T01:00:48.212Z,75.50
2019-03-24T01:01:27.143Z,75.50
2019-03-24T01:02:06.307Z,75.60
2019-03-24T01:02:45.248Z,75.60
2019-03-24T01:03:24.221Z,75.50
2019-03-24T01:04:03.172Z,75.60
2019-03-24T01:04:42.112Z,75.70
2019-03-24T01:05:21.044Z,75.60
2019-03-24T01:06:01.785Z,75.60
2019-03-24T01:06:40.352Z,75.60
2019-03-24T01:07:19.252Z,75.70
2019-03-24T01:07:58.173Z,75.50
2019-03-24T01:08:37.127Z,75.60
2019-03-24T01:09:16.081Z,75.70
2019-03-24T01:09:55.036Z,75.70
2019-03-24T01:10:33.979Z,75.70
2019-03-24T01:11:13.048Z,75.70
2019-03-24T01:11:51.957Z,75.70
2019-03-24T01:12:30.867Z,75.70
2019-03-24T01:13:09.811Z,75.70
2019-03-24T01:13:48.703Z,75.70
2019-03-24T01:14:27.585Z,75.70
2019-03-24T01:15:06.735Z,75.80
2019-03-24T01:15:48.100Z,75.70
2019-03-24T01:16:26.396Z,75.70
2019-03-24T01:17:05.396Z,75.70
2019-03-24T01:17:44.351Z,75.70
2019-03-24T01:18:23.298Z,75.70
2019-03-24T01:19:02.265Z,75.60
2019-03-24T01:19:41.339Z,75.70
2019-03-24T01:20:20.221Z,75.60
2019-03-24T01:20:59.169Z,75.70
2019-03-24T01:21:38.116Z,75.70
2019-03-24T01:22:16.988Z,75.70
2019-03-24T01:22:55.941Z,75.80
2019-03-24T01:23:34.921Z,75.90
2019-03-24T01:24:13.887Z,75.90
2019-03-24T01:24:52.837Z,75.80
2019-03-24T01:25:31.742Z,75.80
2019-03-24T01:26:10.640Z,76.00
2019-03-24T01:26:49.571Z,75.90
2019-03-24T01:27:28.502Z,76.00
2019-03-24T01:28:07.422Z,76.00
2019-03-24T01:28:46.360Z,76.00
2019-03-24T01:29:25.331Z,76.00
2019-03-24T01:30:04.970Z,76.10
2019-03-24T01:30:43.847Z,76.10
2019-03-24T01:31:22.785Z,76.00
2019-03-24T01:32:01.755Z,76.00
2019-03-24T01:32:41.467Z,76.00
2019-03-24T01:33:20.465Z,76.00
2019-03-24T01:33:59.399Z,76.00
2019-03-24T01:34:38.348Z,76.00
2019-03-24T01:35:17.234Z,76.10
2019-03-24T01:35:56.170Z,76.10
2019-03-24T01:36:35.289Z,76.00
2019-03-24T01:37:14.227Z,76.10
2019-03-24T01:37:53.153Z,76.10
2019-03-24T01:38:32.059Z,76.10
2019-03-24T01:39:11.535Z,76.10
2019-03-24T01:39:50.539Z,76.10
2019-03-24T01:40:29.475Z,76.10
2019-03-24T01:41:08.417Z,76.00
2019-03-24T01:41:47.292Z,76.20
2019-03-24T01:42:26.237Z,76.10
2019-03-24T01:43:05.219Z,76.10
2019-03-24T01:43:44.155Z,76.80
2019-03-24T01:44:23.095Z,76.00
2019-03-24T01:45:02.045Z,76.10
2019-03-24T01:45:40.989Z,76.00
2019-03-24T01:46:19.890Z,76.10
2019-03-24T01:46:58.814Z,76.10
2019-03-24T01:47:37.787Z,76.10
2019-03-24T01:48:16.709Z,76.10
2019-03-24T01:48:55.598Z,76.10
2019-03-24T01:49:34.539Z,76.10
2019-03-24T01:50:13.621Z,76.10
2019-03-24T01:50:52.580Z,76.10
2019-03-24T01:51:31.558Z,76.10
2019-03-24T01:52:10.559Z,76.10
2019-03-24T01:52:49.563Z,76.20
2019-03-24T01:53:28.468Z,76.20
2019-03-24T01:54:07.347Z,76.20
2019-03-24T01:54:46.266Z,76.20
2019-03-24T01:55:25.253Z,76.10
2019-03-24T01:56:04.171Z,76.10
2019-03-24T01:56:43.128Z,76.10
2019-03-24T01:57:22.086Z,76.10
2019-03-24T01:58:01.150Z,76.10
2019-03-24T01:58:40.050Z,76.10
2019-03-24T01:59:19.372Z,76.10
2019-03-24T01:59:58.329Z,76.00
2019-03-24T02:00:37.343Z,76.10
2019-03-24T02:01:16.339Z,76.10
2019-03-24T02:01:55.274Z,76.10
2019-03-24T02:02:34.179Z,76.10
2019-03-24T02:03:11.868Z,76.20
2019-03-24T02:03:50.872Z,76.20
2019-03-24T02:04:29.961Z,76.20
2019-03-24T02:05:08.903Z,76.20
2019-03-24T02:05:48.026Z,76.20
2019-03-24T02:06:26.930Z,76.30
2019-03-24T02:07:05.860Z,76.20
2019-03-24T02:07:44.825Z,76.20
2019-03-24T02:08:23.763Z,76.20
2019-03-24T02:09:02.683Z,76.40
2019-03-24T02:09:41.877Z,76.30
2019-03-24T02:10:20.841Z,76.40
2019-03-24T02:10:59.789Z,76.50
2019-03-24T02:11:38.820Z,76.40
2019-03-24T02:12:17.774Z,76.40
2019-03-24T02:12:56.705Z,76.40
2019-03-24T02:13:35.663Z,76.40
2019-03-24T02:14:14.573Z,76.50
2019-03-24T02:14:53.525Z,76.50
2019-03-24T02:15:32.491Z,76.40
2019-03-24T02:16:11.388Z,76.40
2019-03-24T02:16:50.348Z,76.50
2019-03-24T02:17:29.273Z,76.40
2019-03-24T02:18:08.214Z,76.40
2019-03-24T02:18:47.164Z,76.40
2019-03-24T02:19:26.119Z,76.50
2019-03-24T02:20:05.096Z,76.60
2019-03-24T02:20:44.341Z,76.50
2019-03-24T02:21:23.335Z,76.50
2019-03-24T02:22:02.297Z,76.50
2019-03-24T02:22:41.217Z,76.50
2019-03-24T02:23:20.215Z,76.50
2019-03-24T02:23:59.363Z,76.70
2019-03-24T02:24:38.279Z,76.70
2019-03-24T02:25:17.231Z,76.70
2019-03-24T02:25:56.173Z,76.80
2019-03-24T02:26:35.087Z,76.80
2019-03-24T02:27:14.040Z,77.50
2019-03-24T02:27:52.984Z,76.70
2019-03-24T02:28:31.916Z,76.70
2019-03-24T02:29:10.837Z,76.70
2019-03-24T02:29:49.717Z,76.70
2019-03-24T02:30:28.652Z,77.50
2019-03-24T02:31:07.610Z,76.80
2019-03-24T02:31:46.688Z,76.80
2019-03-24T02:32:25.749Z,76.90
2019-03-24T02:33:04.648Z,76.80
2019-03-24T02:33:43.583Z,77.00
2019-03-24T02:34:22.502Z,76.90
2019-03-24T02:35:01.411Z,76.90
2019-03-24T02:35:40.338Z,77.00
2019-03-24T02:36:19.254Z,77.10
2019-03-24T02:36:58.183Z,77.10
2019-03-24T02:37:37.122Z,77.10
2019-03-24T02:38:16.043Z,77.30
2019-03-24T02:38:55.007Z,77.40
2019-03-24T02:39:33.951Z,77.20
2019-03-24T02:40:12.965Z,77.30
2019-03-24T02:40:51.855Z,77.30
2019-03-24T02:41:30.755Z,77.40
2019-03-24T02:42:09.752Z,77.50
2019-03-24T02:42:48.695Z,77.50
2019-03-24T02:43:27.671Z,77.40
2019-03-24T02:44:06.574Z,77.30
2019-03-24T02:44:45.526Z,77.40
2019-03-24T02:45:24.468Z,77.50
2019-03-24T02:46:03.625Z,77.50
2019-03-24T02:46:42.522Z,77.50
2019-03-24T02:47:21.440Z,77.40
2019-03-24T02:48:00.379Z,77.50
2019-03-24T02:48:39.301Z,77.40
2019-03-24T02:49:18.213Z,77.40
2019-03-24T02:49:57.132Z,77.40
2019-03-24T02:50:36.155Z,77.50
2019-03-24T02:51:15.227Z,77.50
2019-03-24T02:51:54.420Z,77.50
2019-03-24T02:52:33.433Z,77.40
2019-03-24T02:53:12.510Z,77.50
2019-03-24T02:53:51.501Z,77.40
2019-03-24T02:54:30.436Z,77.40
2019-03-24T02:55:09.507Z,77.60
2019-03-24T02:55:48.472Z,77.60
2019-03-24T02:56:27.469Z,77.60
2019-03-24T02:57:06.398Z,77.60
2019-03-24T02:57:45.324Z,77.70
2019-03-24T02:58:24.370Z,77.70
2019-03-24T02:59:03.284Z,77.60
2019-03-24T02:59:42.298Z,77.70
2019-03-24T03:00:21.260Z,77.70
2019-03-24T03:01:00.212Z,77.80
2019-03-24T03:01:39.227Z,77.80
2019-03-24T03:02:18.175Z,77.80
2019-03-24T03:02:57.109Z,77.80
2019-03-24T03:03:36.044Z,77.70
2019-03-24T03:04:14.960Z,77.70
2019-03-24T03:04:53.925Z,77.70
2019-03-24T03:05:32.841Z,77.70
2019-03-24T03:06:11.787Z,78.50
2019-03-24T03:06:50.660Z,77.90
2019-03-24T03:07:29.637Z,77.90
2019-03-24T03:08:08.580Z,77.90
2019-03-24T03:08:47.523Z,77.90
2019-03-24T03:09:26.405Z,77.90
2019-03-24T03:10:05.325Z,77.90
2019-03-24T03:10:44.298Z,77.90
2019-03-24T03:11:23.201Z,78.10
2019-03-24T03:12:02.112Z,77.90
2019-03-24T03:12:41.016Z,78.00
2019-03-24T03:13:19.952Z,78.00
2019-03-24T03:13:58.965Z,78.10
2019-03-24T03:14:37.932Z,78.10
2019-03-24T03:15:16.865Z,78.00
2019-03-24T03:15:55.763Z,78.00
2019-03-24T03:16:38.709Z,78.00
2019-03-24T03:17:15.060Z,78.00
2019-03-24T03:17:54.060Z,78.00
2019-03-24T03:18:32.964Z,78.10
2019-03-24T03:19:11.900Z,78.10
2019-03-24T03:19:53.557Z,78.30
2019-03-24T03:20:31.172Z,78.20
2019-03-24T03:21:10.078Z,78.20
2019-03-24T03:21:49.026Z,78.20
2019-03-24T03:22:27.952Z,78.20
2019-03-24T03:23:06.927Z,78.20
2019-03-24T03:23:46.025Z,78.20
2019-03-24T03:24:24.955Z,78.20
2019-03-24T03:25:03.892Z,78.10
2019-03-24T03:25:42.798Z,78.10
2019-03-24T03:26:21.725Z,78.10
2019-03-24T03:27:00.641Z,78.10
2019-03-24T03:27:39.658Z,78.10
2019-03-24T03:28:18.614Z,78.20
2019-03-24T03:28:57.555Z,78.20
2019-03-24T03:29:36.467Z,78.20
2019-03-24T03:30:15.437Z,78.20
2019-03-24T03:30:54.379Z,78.10
2019-03-24T03:31:33.366Z,78.10
2019-03-24T03:32:12.295Z,78.00
2019-03-24T03:32:51.284Z,78.10
2019-03-24T03:33:30.240Z,78.00
2019-03-24T03:34:09.435Z,78.10
2019-03-24T03:34:48.525Z,78.10
2019-03-24T03:35:27.554Z,78.20
2019-03-24T03:36:06.577Z,78.10
2019-03-24T03:36:45.557Z,78.00
2019-03-24T03:37:24.468Z,78.00
2019-03-24T03:38:03.357Z,78.10
2019-03-24T03:38:42.283Z,78.10
2019-03-24T03:39:21.367Z,78.10
2019-03-24T03:40:00.730Z,78.10
2019-03-24T03:40:39.858Z,78.00
2019-03-24T03:41:18.750Z,78.10
2019-03-24T03:41:57.683Z,78.80
2019-03-24T03:42:36.634Z,78.10
2019-03-24T03:43:15.692Z,78.10
2019-03-24T03:43:54.635Z,78.10
2019-03-24T03:44:33.573Z,78.00
2019-03-24T03:45:12.711Z,78.00
2019-03-24T03:45:51.667Z,78.00
2019-03-24T03:46:30.604Z,77.80
2019-03-24T03:47:09.505Z,77.90
2019-03-24T03:47:48.533Z,77.90
2019-03-24T03:48:27.563Z,78.00
2019-03-24T03:49:06.503Z,78.00
2019-03-24T03:49:45.551Z,77.90
2019-03-24T03:50:24.453Z,78.00
2019-03-24T03:51:03.325Z,77.90
2019-03-24T03:51:42.286Z,77.80
2019-03-24T03:52:21.200Z,77.90
2019-03-24T03:53:00.123Z,77.80
2019-03-24T03:53:39.026Z,77.80
2019-03-24T03:54:17.962Z,77.90
2019-03-24T03:54:56.977Z,77.80
2019-03-24T03:55:36.137Z,77.90
2019-03-24T03:56:15.089Z,77.90
2019-03-24T03:56:54.039Z,77.80
2019-03-24T03:57:32.964Z,77.90
2019-03-24T03:58:11.901Z,77.90
2019-03-24T03:58:50.864Z,77.90
2019-03-24T03:59:29.822Z,77.80
2019-03-24T04:00:09.601Z,77.80
2019-03-24T04:00:48.517Z,77.90
2019-03-24T04:01:27.515Z,77.80
2019-03-24T04:02:06.420Z,77.80
2019-03-24T04:02:45.313Z,77.80
2019-03-24T04:03:24.270Z,77.80
2019-03-24T04:04:03.191Z,77.80
2019-03-24T04:04:42.045Z,77.70
2019-03-24T04:05:21.021Z,77.70
2019-03-24T04:05:59.985Z,77.80
2019-03-24T04:06:38.983Z,77.90
2019-03-24T04:07:17.885Z,77.80
2019-03-24T04:07:56.845Z,77.80
2019-03-24T04:08:35.777Z,77.70
2019-03-24T04:09:14.739Z,77.70
2019-03-24T04:09:53.710Z,77.70
2019-03-24T04:10:32.690Z,77.80
2019-03-24T04:11:11.620Z,77.70
2019-03-24T04:11:50.528Z,77.70
2019-03-24T04:12:29.428Z,77.70
2019-03-24T04:13:08.350Z,77.50
2019-03-24T04:13:47.316Z,77.50
2019-03-24T04:14:26.266Z,77.60
2019-03-24T04:15:05.196Z,77.60
2019-03-24T04:15:44.090Z,77.60
2019-03-24T04:16:23.004Z,77.50
2019-03-24T04:17:07.726Z,77.60
2019-03-24T04:17:42.235Z,77.50
2019-03-24T04:18:21.148Z,77.60
2019-03-24T04:19:00.115Z,77.50
2019-03-24T04:19:39.061Z,77.50
2019-03-24T04:20:18.004Z,77.40
2019-03-24T04:20:56.953Z,77.40
2019-03-24T04:21:35.883Z,77.40
2019-03-24T04:22:14.800Z,77.30
2019-03-24T04:22:53.732Z,77.30
2019-03-24T04:23:32.701Z,77.40
2019-03-24T04:24:11.601Z,77.40
2019-03-24T04:24:50.563Z,77.30
2019-03-24T04:25:29.433Z,77.40
2019-03-24T04:26:08.449Z,77.50
2019-03-24T04:26:50.162Z,77.40
2019-03-24T04:27:29.066Z,77.30
2019-03-24T04:28:08.024Z,77.20
2019-03-24T04:28:46.962Z,77.20
2019-03-24T04:29:25.903Z,77.20
2019-03-24T04:30:04.849Z,77.10
2019-03-24T04:30:43.730Z,77.10
2019-03-24T04:31:22.680Z,77.20
2019-03-24T04:32:01.619Z,77.20
2019-03-24T04:32:40.597Z,77.10
2019-03-24T04:33:19.547Z,77.10
2019-03-24T04:33:58.547Z,77.10
2019-03-24T04:34:37.552Z,77.10
2019-03-24T04:35:16.512Z,77.10
2019-03-24T04:35:55.473Z,77.10
2019-03-24T04:36:34.404Z,77.10
2019-03-24T04:37:13.318Z,77.10
2019-03-24T04:37:52.242Z,77.10
2019-03-24T04:38:31.207Z,77.00
2019-03-24T04:39:10.787Z,77.00
2019-03-24T04:39:49.739Z,77.00
2019-03-24T04:40:28.683Z,77.00
2019-03-24T04:41:07.622Z,77.00
2019-03-24T04:41:46.612Z,77.00
2019-03-24T04:42:25.533Z,77.00
2019-03-24T04:43:04.521Z,76.90
2019-03-24T04:43:43.417Z,77.00
2019-03-24T04:44:22.359Z,77.00
2019-03-24T04:45:01.346Z,76.80
2019-03-24T04:45:40.458Z,76.90
2019-03-24T04:46:19.370Z,77.00
2019-03-24T04:46:58.286Z,77.00
2019-03-24T04:47:37.192Z,77.00
2019-03-24T04:48:16.151Z,76.90
2019-03-24T04:48:55.135Z,76.90
2019-03-24T04:49:34.078Z,77.00
2019-03-24T04:50:12.941Z,77.00
2019-03-24T04:50:51.847Z,76.80
2019-03-24T04:51:30.731Z,76.80
2019-03-24T04:52:09.728Z,76.70
2019-03-24T04:52:48.703Z,76.70
2019-03-24T04:53:27.638Z,76.70
2019-03-24T04:54:06.583Z,76.70
2019-03-24T04:54:45.518Z,76.70
2019-03-24T04:55:24.463Z,76.70
2019-03-24T04:56:03.392Z,76.70
2019-03-24T04:56:42.429Z,76.70
2019-03-24T04:57:21.368Z,76.70
2019-03-24T04:58:00.309Z,76.60
2019-03-24T04:58:39.449Z,77.40
2019-03-24T04:59:18.389Z,76.70
2019-03-24T04:59:57.368Z,76.70
2019-03-24T05:00:43.012Z,76.60
2019-03-24T05:01:22.049Z,76.60
2019-03-24T05:02:00.919Z,76.60
2019-03-24T05:02:39.892Z,76.60
2019-03-24T05:03:18.784Z,76.50
2019-03-24T05:03:57.743Z,76.60
2019-03-24T05:04:36.703Z,76.70
2019-03-24T05:05:15.696Z,76.50
2019-03-24T05:05:54.606Z,76.50
2019-03-24T05:06:33.556Z,76.50
2019-03-24T05:07:12.611Z,76.50
2019-03-24T05:07:51.575Z,76.50
2019-03-24T05:08:30.496Z,76.40
2019-03-24T05:09:09.433Z,76.50
2019-03-24T05:09:48.385Z,76.50
2019-03-24T05:10:33.152Z,76.50
2019-03-24T05:11:12.034Z,76.40
2019-03-24T05:11:50.947Z,76.40
2019-03-24T05:12:29.890Z,76.40
2019-03-24T05:13:08.796Z,76.40
2019-03-24T05:13:47.712Z,76.40
2019-03-24T05:14:26.625Z,76.40
2019-03-24T05:15:05.602Z,76.40
2019-03-24T05:15:44.604Z,76.40
2019-03-24T05:16:23.586Z,76.30
2019-03-24T05:17:02.572Z,77.00
2019-03-24T05:17:41.501Z,76.90
2019-03-24T05:18:20.441Z,76.20
2019-03-24T05:18:59.387Z,76.30
2019-03-24T05:19:38.286Z,76.20
2019-03-24T05:20:17.208Z,76.20
2019-03-24T05:20:56.215Z,76.20
2019-03-24T05:21:35.115Z,76.20
2019-03-24T05:22:14.039Z,76.90
2019-03-24T05:22:53.148Z,76.10
2019-03-24T05:23:32.084Z,76.10
2019-03-24T05:24:11.044Z,76.00
2019-03-24T05:24:49.945Z,76.10
2019-03-24T05:25:28.846Z,76.10
2019-03-24T05:26:07.768Z,76.00
2019-03-24T05:26:46.722Z,76.00
2019-03-24T05:27:25.620Z,76.00
2019-03-24T05:28:04.525Z,76.00
2019-03-24T05:28:43.481Z,75.90
2019-03-24T05:29:22.455Z,75.80
2019-03-24T05:30:01.373Z,75.80
2019-03-24T05:30:40.276Z,75.90
2019-03-24T05:31:19.193Z,75.90
2019-03-24T05:31:58.157Z,75.80
2019-03-24T05:32:37.085Z,75.80
2019-03-24T05:33:15.996Z,75.90
2019-03-24T05:33:54.937Z,75.70
2019-03-24T05:34:33.945Z,75.70
2019-03-24T05:35:12.848Z,75.90
2019-03-24T05:35:51.766Z,75.90
2019-03-24T05:36:30.692Z,75.80
2019-03-24T05:37:09.601Z,75.80
2019-03-24T05:37:48.568Z,75.70
2019-03-24T05:38:27.519Z,75.70
2019-03-24T05:39:07.324Z,75.60
2019-03-24T05:39:46.299Z,75.60
2019-03-24T05:40:25.242Z,75.50
2019-03-24T05:41:04.368Z,75.60
2019-03-24T05:41:43.272Z,75.60
2019-03-24T05:42:22.208Z,75.40
2019-03-24T05:43:01.084Z,75.50
2019-03-24T05:43:40.069Z,75.30
2019-03-24T05:44:19.044Z,75.50
2019-03-24T05:44:57.931Z,75.30
2019-03-24T05:45:36.928Z,75.60
2019-03-24T05:46:15.874Z,75.40
2019-03-24T05:46:54.803Z,75.50
2019-03-24T05:47:37.430Z,75.40
2019-03-24T05:48:14.087Z,75.10
2019-03-24T05:48:53.084Z,75.20
2019-03-24T05:49:31.988Z,75.40
2019-03-24T05:50:11.089Z,75.20
2019-03-24T05:50:49.977Z,75.30
2019-03-24T05:51:28.885Z,75.10
2019-03-24T05:52:07.847Z,75.10
2019-03-24T05:52:46.757Z,75.20
2019-03-24T05:53:25.729Z,75.00
2019-03-24T05:54:04.662Z,74.90
2019-03-24T05:54:43.649Z,74.90
2019-03-24T05:55:22.610Z,75.00
2019-03-24T05:56:01.567Z,74.80
2019-03-24T05:56:40.557Z,74.90
2019-03-24T05:57:19.485Z,74.70
2019-03-24T05:57:58.416Z,74.60
2019-03-24T05:58:37.355Z,74.70
2019-03-24T05:59:16.281Z,74.60
2019-03-24T05:59:55.215Z,74.30
2019-03-24T06:00:34.121Z,74.50
2019-03-24T06:01:13.079Z,74.40
2019-03-24T06:01:51.996Z,74.30
2019-03-24T06:02:30.958Z,74.40
2019-03-24T06:03:09.930Z,74.30
2019-03-24T06:03:48.918Z,74.30
2019-03-24T06:04:27.805Z,74.20
2019-03-24T06:05:06.770Z,74.30
2019-03-24T06:05:45.676Z,74.20
2019-03-24T06:06:24.599Z,74.30
2019-03-24T06:07:03.546Z,74.40
2019-03-24T06:07:42.450Z,74.20
2019-03-24T06:08:21.403Z,74.20
2019-03-24T06:09:00.326Z,74.10
2019-03-24T06:09:39.344Z,74.00
2019-03-24T06:10:18.301Z,74.00
2019-03-24T06:10:57.283Z,74.00
2019-03-24T06:11:36.266Z,73.90
2019-03-24T06:12:15.219Z,73.90
2019-03-24T06:12:54.198Z,73.90
2019-03-24T06:13:33.115Z,74.00
2019-03-24T06:14:11.993Z,73.80
2019-03-24T06:14:50.928Z,73.70
2019-03-24T06:15:29.912Z,73.80
2019-03-24T06:16:08.879Z,73.80
2019-03-24T06:16:47.812Z,73.80
2019-03-24T06:17:26.771Z,73.80
2019-03-24T06:18:05.714Z,73.80
2019-03-24T06:18:44.650Z,73.90
2019-03-24T06:19:23.566Z,73.70
2019-03-24T06:20:02.506Z,73.70
2019-03-24T06:20:41.474Z,73.70
2019-03-24T06:21:20.454Z,73.70
2019-03-24T06:21:59.379Z,73.60
2019-03-24T06:22:38.300Z,73.60
2019-03-24T06:23:17.231Z,73.50
2019-03-24T06:23:56.219Z,73.60
2019-03-24T06:24:35.093Z,73.70
2019-03-24T06:25:13.997Z,73.60
2019-03-24T06:25:52.892Z,73.40
2019-03-24T06:26:31.836Z,73.40
2019-03-24T06:27:10.750Z,73.40
2019-03-24T06:27:49.677Z,73.40
2019-03-24T06:28:28.605Z,73.30
2019-03-24T06:29:07.575Z,73.40
2019-03-24T06:29:46.455Z,73.30
2019-03-24T06:30:25.423Z,73.40
2019-03-24T06:31:04.375Z,73.30
2019-03-24T06:31:43.303Z,73.30
2019-03-24T06:32:22.178Z,73.30
2019-03-24T06:33:01.127Z,73.20
2019-03-24T06:33:40.052Z,73.20
2019-03-24T06:34:18.987Z,73.20
2019-03-24T06:34:57.887Z,73.20
2019-03-24T06:35:36.805Z,73.10
2019-03-24T06:36:15.736Z,73.10
2019-03-24T06:36:54.668Z,73.20
2019-03-24T06:37:33.581Z,73.20
2019-03-24T06:38:12.527Z,73.20
2019-03-24T06:38:51.441Z,73.10
2019-03-24T06:39:30.382Z,73.10
2019-03-24T06:40:09.631Z,73.10
2019-03-24T06:40:48.607Z,73.10
2019-03-24T06:41:27.544Z,73.00
2019-03-24T06:42:06.517Z,72.90
2019-03-24T06:42:45.416Z,72.90
2019-03-24T06:43:24.301Z,72.90
2019-03-24T06:44:03.240Z,72.90
2019-03-24T06:44:42.169Z,72.90
2019-03-24T06:45:28.441Z,72.80
2019-03-24T06:46:01.498Z,72.80
2019-03-24T06:46:40.464Z,72.90
2019-03-24T06:47:19.393Z,72.90
2019-03-24T06:47:58.458Z,72.80
2019-03-24T06:48:37.490Z,72.80
2019-03-24T06:49:16.417Z,72.80
2019-03-24T06:49:55.388Z,72.70
2019-03-24T06:50:34.388Z,72.60
2019-03-24T06:51:13.301Z,72.60
2019-03-24T06:51:52.264Z,72.60
2019-03-24T06:52:31.239Z,72.50
2019-03-24T06:53:10.182Z,72.50
2019-03-24T06:53:49.124Z,72.60
2019-03-24T06:54:28.089Z,72.60
2019-03-24T06:55:07.009Z,72.70
2019-03-24T06:55:45.924Z,72.60
2019-03-24T06:56:24.883Z,72.60
2019-03-24T06:57:03.824Z,72.50
2019-03-24T06:57:42.805Z,72.40
2019-03-24T06:58:21.703Z,72.40
2019-03-24T06:59:00.628Z,72.50
2019-03-24T06:59:39.575Z,72.40
2019-03-24T07:00:18.484Z,72.50
2019-03-24T07:00:57.412Z,72.50
2019-03-24T07:01:36.342Z,72.40
2019-03-24T07:02:15.235Z,72.40
2019-03-24T07:02:54.180Z,72.30
2019-03-24T07:03:33.111Z,72.20
2019-03-24T07:04:12.047Z,72.20
2019-03-24T07:04:51.274Z,72.40
2019-03-24T07:05:30.226Z,72.40
2019-03-24T07:06:09.248Z,72.30
2019-03-24T07:06:48.258Z,72.20
2019-03-24T07:07:27.224Z,72.20
2019-03-24T07:08:06.164Z,72.10
2019-03-24T07:08:45.085Z,72.20
2019-03-24T07:09:24.037Z,72.20
2019-03-24T07:10:03.004Z,72.10
2019-03-24T07:10:41.993Z,72.10
2019-03-24T07:11:20.941Z,72.10
2019-03-24T07:12:00.227Z,72.00
2019-03-24T07:12:39.284Z,72.00
2019-03-24T07:13:18.254Z,72.10
2019-03-24T07:13:57.214Z,72.10
2019-03-24T07:14:36.143Z,72.00
2019-03-24T07:15:15.169Z,72.10
2019-03-24T07:15:54.096Z,72.00
2019-03-24T07:16:33.026Z,71.90
2019-03-24T07:17:11.959Z,72.00
2019-03-24T07:17:50.955Z,71.90
2019-03-24T07:18:30.766Z,71.90
2019-03-24T07:19:09.757Z,71.80
2019-03-24T07:19:48.676Z,71.80
2019-03-24T07:20:27.626Z,71.80
2019-03-24T07:21:06.559Z,71.70
2019-03-24T07:21:45.477Z,71.70
2019-03-24T07:22:24.414Z,71.70
2019-03-24T07:23:03.369Z,71.70
2019-03-24T07:23:42.433Z,71.70
2019-03-24T07:24:21.372Z,71.70
2019-03-24T07:25:00.383Z,71.60
2019-03-24T07:25:39.363Z,71.60
2019-03-24T07:26:18.258Z,71.60
2019-03-24T07:26:57.223Z,71.60
2019-03-24T07:27:36.162Z,71.60
2019-03-24T07:28:15.115Z,71.50
2019-03-24T07:28:54.048Z,71.60
2019-03-24T07:29:33.082Z,71.50
2019-03-24T07:30:12.048Z,71.40
2019-03-24T07:30:50.992Z,71.50
2019-03-24T07:31:29.915Z,71.40
2019-03-24T07:32:08.870Z,71.50
2019-03-24T07:32:47.773Z,71.60
2019-03-24T07:33:26.732Z,71.50
2019-03-24T07:34:05.697Z,71.50
2019-03-24T07:34:44.674Z,71.40
2019-03-24T07:35:23.692Z,71.30
2019-03-24T07:36:02.606Z,71.30
2019-03-24T07:36:41.565Z,71.20
2019-03-24T07:37:20.500Z,71.20
2019-03-24T07:37:59.424Z,71.10
2019-03-24T07:38:38.398Z,71.10
2019-03-24T07:39:17.396Z,71.00
2019-03-24T07:39:56.288Z,71.00
2019-03-24T07:40:35.234Z,70.90
2019-03-24T07:41:14.132Z,70.90
2019-03-24T07:41:53.060Z,70.90
2019-03-24T07:42:31.979Z,70.80
2019-03-24T07:43:10.907Z,70.80
2019-03-24T07:43:49.831Z,70.80
2019-03-24T07:44:28.795Z,70.80
2019-03-24T07:45:07.830Z,70.70
2019-03-24T07:45:46.761Z,70.70
2019-03-24T07:46:25.716Z,70.70
2019-03-24T07:47:06.989Z,70.70
2019-03-24T07:47:45.964Z,70.70
2019-03-24T07:48:24.874Z,70.70
2019-03-24T07:49:03.882Z,70.70
2019-03-24T07:49:42.867Z,70.70
2019-03-24T07:50:21.796Z,70.70
2019-03-24T07:51:00.744Z,70.70
2019-03-24T07:51:39.835Z,70.70
2019-03-24T07:52:18.780Z,70.70
2019-03-24T07:52:57.807Z,70.70
2019-03-24T07:53:36.758Z,70.60
2019-03-24T07:54:15.740Z,70.50
2019-03-24T07:54:54.739Z,70.50
2019-03-24T07:55:33.684Z,70.50
2019-03-24T07:56:12.833Z,70.40
2019-03-24T07:56:51.972Z,70.30
2019-03-24T07:57:30.880Z,70.30
2019-03-24T07:58:10.019Z,70.40
2019-03-24T07:58:49.100Z,70.40
2019-03-24T07:59:28.041Z,70.20
2019-03-24T08:00:06.999Z,70.30
2019-03-24T08:00:46.060Z,70.30
2019-03-24T08:01:24.960Z,70.20
2019-03-24T08:02:03.923Z,70.20
2019-03-24T08:02:50.983Z,70.20
2019-03-24T08:03:25.536Z,70.20
2019-03-24T08:04:05.975Z,70.30
2019-03-24T08:04:45.039Z,70.30
2019-03-24T08:05:24.124Z,70.30
2019-03-24T08:06:03.079Z,70.20
2019-03-24T08:06:42.116Z,70.30
2019-03-24T08:07:21.051Z,70.20
2019-03-24T08:07:59.965Z,70.10
2019-03-24T08:08:44.250Z,70.10
2019-03-24T08:09:19.235Z,70.10
2019-03-24T08:09:58.319Z,70.00
2019-03-24T08:10:37.271Z,70.10
2019-03-24T08:11:16.198Z,70.10
2019-03-24T08:11:55.149Z,70.00
2019-03-24T08:12:34.075Z,70.00
2019-03-24T08:13:12.988Z,70.10
2019-03-24T08:13:54.049Z,70.10
2019-03-24T08:14:32.239Z,70.10
2019-03-24T08:15:11.180Z,70.10
2019-03-24T08:15:50.084Z,70.10
2019-03-24T08:16:29.016Z,70.10
2019-03-24T08:17:07.993Z,70.10
2019-03-24T08:17:46.960Z,70.10
2019-03-24T08:18:29.895Z,70.10
2019-03-24T08:19:06.248Z,70.10
2019-03-24T08:19:45.156Z,70.20
2019-03-24T08:20:24.110Z,70.20
2019-03-24T08:21:03.086Z,70.20
2019-03-24T08:21:41.982Z,70.30
2019-03-24T08:22:20.879Z,70.20
2019-03-24T08:22:59.832Z,70.10